Time;durP1;ratioP1;P1;durP2;ratioP2;P2;SDS_P1;SDS_P2;PMS_P1;PMS_P2;Temp;Humidity;BMP_temperature;BMP_pressure;BME280_temperature;BME280_humidity;BME280_pressure;Samples;Min_cycle;Max_cycle;Signal;HPM_P1;HPM_P2
2022/05/29 00:01:34;;;;;;;3.20;1.50;;;10.30;93.10;;;;;;4992342;28;20064;-74
2022/05/29 00:04:00;;;;;;;3.92;1.48;;;10.30;93.30;;;;;;4995734;28;20034;-75
2022/05/29 00:06:26;;;;;;;2.58;1.27;;;10.30;93.50;;;;;;4996660;28;20026;-74
2022/05/29 00:08:52;;;;;;;4.97;1.30;;;10.30;93.70;;;;;;4989098;28;20030;-75
2022/05/29 00:11:18;;;;;;;4.85;1.95;;;10.20;93.70;;;;;;4994884;28;20119;-74
2022/05/29 00:13:44;;;;;;;2.38;1.25;;;10.30;93.90;;;;;;4995505;28;20478;-74
2022/05/29 00:16:10;;;;;;;2.83;1.20;;;10.20;94.00;;;;;;4996507;28;20034;-74
2022/05/29 00:18:37;;;;;;;4.93;1.65;;;10.20;94.00;;;;;;4996360;28;20030;-74
2022/05/29 00:21:05;;;;;;;4.03;1.40;;;10.20;94.20;;;;;;4994881;28;20383;-74
2022/05/29 00:23:35;;;;;;;3.00;1.50;;;10.20;94.30;;;;;;4995014;28;20040;-74
2022/05/29 00:26:01;;;;;;;6.60;1.75;;;10.20;94.50;;;;;;4994412;28;20556;-74
2022/05/29 00:28:26;;;;;;;4.47;1.40;;;10.10;94.50;;;;;;4996828;28;20030;-74
2022/05/29 00:30:52;;;;;;;4.65;1.58;;;10.10;94.80;;;;;;4997478;28;20030;-74
2022/05/29 00:33:18;;;;;;;4.72;1.65;;;10.00;94.80;;;;;;4999651;28;20025;-74
2022/05/29 00:35:44;;;;;;;7.70;1.85;;;10.10;95.00;;;;;;4976837;28;20030;-74
2022/05/29 00:38:12;;;;;;;7.82;1.92;;;10.00;95.20;;;;;;4992023;28;20042;-74
2022/05/29 00:40:55;;;;;;;2.67;1.27;;;10.00;95.20;;;;;;4990634;28;20368;-74
2022/05/29 00:43:31;;;;;;;4.93;1.73;;;10.00;95.40;;;;;;4990449;28;20462;-74
2022/05/29 00:46:00;;;;;;;5.32;1.60;;;10.00;95.40;;;;;;4992045;28;20371;-74
2022/05/29 00:48:26;;;;;;;6.18;1.65;;;10.00;95.50;;;;;;4991114;28;20064;-74
2022/05/29 00:50:57;;;;;;;3.13;1.50;;;9.90;95.70;;;;;;4992917;28;20022;-74
2022/05/29 00:53:23;;;;;;;5.20;1.45;;;9.80;95.80;;;;;;4991142;28;20498;-74
2022/05/29 00:56:02;;;;;;;6.18;1.48;;;9.80;95.90;;;;;;4976630;28;20039;-74
2022/05/29 00:58:30;;;;;;;4.53;1.83;;;9.90;96.10;;;;;;4995569;28;20085;-74
2022/05/29 01:00:57;;;;;;;2.85;1.20;;;9.80;96.20;;;;;;4977326;28;20109;-74
2022/05/29 01:03:23;;;;;;;6.32;1.70;;;9.80;96.30;;;;;;4990974;28;20019;-75
2022/05/29 01:05:49;;;;;;;4.68;1.73;;;9.80;96.50;;;;;;4990058;28;20026;-74
2022/05/29 01:08:24;;;;;;;4.05;1.98;;;9.80;96.60;;;;;;4991628;28;20108;-74
2022/05/29 01:10:50;;;;;;;4.20;1.75;;;9.80;96.90;;;;;;4990030;28;20027;-74
2022/05/29 01:13:34;;;;;;;3.40;1.45;;;9.80;96.80;;;;;;4995099;28;20033;-74
2022/05/29 01:16:06;;;;;;;10.60;1.77;;;9.80;96.80;;;;;;4986452;28;20054;-74
2022/05/29 01:18:39;;;;;;;4.32;1.70;;;9.80;96.80;;;;;;4989122;28;20494;-74
2022/05/29 01:21:25;;;;;;;2.30;1.27;;;9.70;97.00;;;;;;4993613;28;20026;-74
2022/05/29 01:24:09;;;;;;;5.55;1.73;;;9.70;97.10;;;;;;4993115;28;20483;-74
2022/05/29 01:26:58;;;;;;;4.57;1.88;;;9.70;97.20;;;;;;4992358;28;20029;-74
2022/05/29 01:30:05;;;;;;;7.10;2.10;;;9.70;97.30;;;;;;4987720;28;20028;-75
2022/05/29 01:32:52;;;;;;;2.95;1.45;;;9.70;97.60;;;;;;4978922;28;20109;-73
2022/05/29 01:35:34;;;;;;;3.72;1.50;;;9.70;97.40;;;;;;4991303;28;20133;-73
2022/05/29 01:38:09;;;;;;;5.40;2.00;;;9.70;97.50;;;;;;4993170;28;20030;-73
2022/05/29 01:40:42;;;;;;;3.30;1.65;;;9.70;97.60;;;;;;4991435;28;20034;-74
2022/05/29 01:43:34;;;;;;;2.00;1.30;;;9.70;97.50;;;;;;4987212;28;20121;-74
2022/05/29 01:46:10;;;;;;;3.90;1.40;;;9.70;97.50;;;;;;4985537;28;20030;-74
2022/05/29 01:48:58;;;;;;;4.07;1.50;;;9.70;97.50;;;;;;4993116;28;20034;-74
2022/05/29 01:51:38;;;;;;;4.30;1.50;;;9.70;97.60;;;;;;4990132;28;20042;-74
2022/05/29 01:54:19;;;;;;;4.25;1.70;;;9.70;97.60;;;;;;4989558;28;20457;-74
2022/05/29 01:56:49;;;;;;;2.67;1.63;;;9.70;97.60;;;;;;4973660;28;20037;-74
2022/05/29 01:59:27;;;;;;;3.35;1.15;;;9.70;97.60;;;;;;4991499;28;20026;-74
2022/05/29 02:02:05;;;;;;;5.25;1.45;;;9.70;97.50;;;;;;4985662;28;20110;-75
2022/05/29 02:04:33;;;;;;;3.78;1.30;;;9.70;97.70;;;;;;4991010;28;20126;-76
2022/05/29 02:09:57;;;;;;;2.50;1.35;;;9.60;97.90;;;;;;4983060;28;20446;-75
2022/05/29 02:12:25;;;;;;;4.88;1.85;;;9.60;97.80;;;;;;4989793;28;20026;-75
2022/05/29 02:15:00;;;;;;;3.63;1.15;;;9.50;97.80;;;;;;4989697;28;20042;-75
2022/05/29 02:17:33;;;;;;;6.15;1.58;;;9.50;97.90;;;;;;4987796;28;20106;-76
2022/05/29 02:20:11;;;;;;;;;;;9.40;98.00;;;;;;4973738;28;20034;-74
2022/05/29 02:22:37;;;;;;;2.95;1.30;;;9.30;98.30;;;;;;4990824;28;19909;-75
2022/05/29 02:25:11;;;;;;;3.47;1.20;;;9.30;98.60;;;;;;4992136;28;20073;-75
2022/05/29 02:27:50;;;;;;;3.00;1.00;;;9.20;98.70;;;;;;4987000;28;20026;-75
2022/05/29 02:30:16;;;;;;;2.22;1.45;;;9.20;98.90;;;;;;4985787;28;20037;-75
2022/05/29 02:33:06;;;;;;;2.55;1.45;;;9.20;98.90;;;;;;4990839;28;20035;-75
2022/05/29 02:36:19;;;;;;;3.80;1.15;;;9.10;99.30;;;;;;4990156;28;20110;-75
2022/05/29 02:39:00;;;;;;;3.70;1.38;;;9.10;99.30;;;;;;4960478;28;20559;-75
2022/05/29 02:41:46;;;;;;;2.60;1.20;;;9.10;99.60;;;;;;4967225;28;20529;-74
2022/05/29 02:44:20;;;;;;;4.63;1.10;;;9.00;99.60;;;;;;4985644;28;20019;-75
2022/05/29 02:47:04;;;;;;;;;;;9.00;99.70;;;;;;4975727;28;20022;-75
2022/05/29 02:49:43;;;;;;;1.63;1.17;;;9.00;99.80;;;;;;4999879;28;19918;-74
2022/05/29 02:52:15;;;;;;;4.10;1.30;;;8.90;99.80;;;;;;4990128;28;20046;-75
2022/05/29 02:54:42;;;;;;;2.58;1.35;;;9.00;99.90;;;;;;4989858;28;20057;-75
2022/05/29 02:57:09;;;;;;;3.33;1.83;;;9.00;99.90;;;;;;4973507;28;20399;-75
2022/05/29 02:59:41;;;;;;;4.30;1.70;;;9.00;99.90;;;;;;4989055;28;20093;-74
2022/05/29 03:02:27;;;;;;;4.65;2.13;;;9.00;99.90;;;;;;4988835;28;20030;-74
2022/05/29 03:04:59;;;;;;;4.15;1.90;;;9.00;99.90;;;;;;4993041;28;20046;-74
2022/05/29 03:07:43;;;;;;;5.15;1.95;;;9.00;99.90;;;;;;4998192;28;20022;-75
2022/05/29 03:10:37;;;;;;;3.95;2.08;;;9.10;99.90;;;;;;4971848;28;20117;-75
2022/05/29 03:13:09;;;;;;;5.18;2.05;;;9.10;99.90;;;;;;4971891;28;20042;-75
2022/05/29 03:15:50;;;;;;;5.18;1.85;;;9.10;99.90;;;;;;4970992;28;20096;-75
2022/05/29 03:18:25;;;;;;;3.83;1.55;;;9.10;99.90;;;;;;4991451;28;20026;-75
2022/05/29 03:21:09;;;;;;;3.75;1.48;;;9.10;99.90;;;;;;4993475;28;20030;-75
2022/05/29 03:23:56;;;;;;;6.43;2.33;;;9.10;99.90;;;;;;4993618;28;20026;-74
2022/05/29 03:26:32;;;;;;;4.28;1.90;;;9.20;99.90;;;;;;4993246;28;20023;-74
2022/05/29 03:29:07;;;;;;;3.33;1.77;;;9.20;99.90;;;;;;4995742;28;20030;-75
2022/05/29 03:31:34;;;;;;;4.80;2.28;;;9.20;99.90;;;;;;4973356;28;20089;-74
2022/05/29 03:34:00;;;;;;;3.33;1.60;;;9.20;99.90;;;;;;4992773;28;20160;-74
2022/05/29 03:36:28;;;;;;;3.50;1.52;;;9.20;99.90;;;;;;4990063;28;20446;-74
2022/05/29 03:38:54;;;;;;;2.90;1.65;;;9.10;99.90;;;;;;4988972;28;20027;-75
2022/05/29 03:41:46;;;;;;;4.47;1.27;;;9.20;99.90;;;;;;4991977;28;20026;-75
2022/05/29 03:44:13;;;;;;;3.53;1.42;;;9.20;99.90;;;;;;4991074;28;20027;-74
2022/05/29 03:46:39;;;;;;;1.85;1.35;;;9.10;99.90;;;;;;4995285;28;20471;-74
2022/05/29 03:49:07;;;;;;;2.47;1.27;;;9.10;99.90;;;;;;4981838;28;20030;-74
2022/05/29 03:51:33;;;;;;;2.90;1.30;;;9.10;99.90;;;;;;4991113;28;20053;-74
2022/05/29 03:54:00;;;;;;;2.35;1.45;;;9.00;99.90;;;;;;4977473;28;20117;-75
2022/05/29 03:56:26;;;;;;;4.50;1.55;;;9.00;99.90;;;;;;4992878;28;20386;-74
2022/05/29 03:58:52;;;;;;;6.80;1.85;;;9.00;99.90;;;;;;4997117;28;20042;-74
2022/05/29 04:01:17;;;;;;;3.90;1.55;;;9.00;99.90;;;;;;4992230;28;20027;-75
2022/05/29 04:03:43;;;;;;;2.35;1.10;;;9.00;99.90;;;;;;5011438;23;20045;-74
2022/05/29 04:06:08;;;;;;;3.50;1.55;;;8.90;99.90;;;;;;4987594;28;20023;-74
2022/05/29 04:14:04;;;;;;;5.13;1.80;;;9.00;99.90;;;;;;4992947;28;20034;-73
2022/05/29 04:16:30;;;;;;;4.45;1.60;;;9.00;99.90;;;;;;4985696;28;20027;-73
2022/05/29 04:18:56;;;;;;;4.90;1.58;;;9.00;99.90;;;;;;4991812;28;20044;-73
2022/05/29 04:21:22;;;;;;;4.55;1.63;;;9.00;99.90;;;;;;4973883;28;20042;-73
2022/05/29 04:23:47;;;;;;;3.50;1.55;;;9.10;99.90;;;;;;4985604;28;20030;-73
2022/05/29 04:26:14;;;;;;;5.28;1.45;;;9.10;99.90;;;;;;4988255;28;20026;-74
2022/05/29 04:28:41;;;;;;;4.63;1.58;;;9.10;99.90;;;;;;4989734;28;20109;-74
2022/05/29 04:31:06;;;;;;;4.22;1.55;;;9.20;99.90;;;;;;4989212;28;20107;-74
2022/05/29 04:33:32;;;;;;;3.75;1.30;;;9.40;99.90;;;;;;4988901;28;20558;-74
2022/05/29 04:35:58;;;;;;;4.35;1.40;;;9.40;99.90;;;;;;4964620;28;20038;-73
2022/05/29 04:38:27;;;;;;;4.28;1.67;;;9.50;99.90;;;;;;4988690;28;20029;-75
2022/05/29 04:40:54;;;;;;;5.32;1.70;;;9.60;99.90;;;;;;4990994;28;20463;-74
2022/05/29 04:43:20;;;;;;;2.65;1.40;;;9.60;99.90;;;;;;4987161;28;20110;-74
2022/05/29 04:45:51;;;;;;;4.18;1.33;;;9.70;99.90;;;;;;4970242;28;20057;-74
2022/05/29 04:48:16;;;;;;;3.58;1.20;;;9.70;99.90;;;;;;4994109;28;20549;-74
2022/05/29 04:50:43;;;;;;;3.60;1.60;;;9.90;99.90;;;;;;4969599;28;20043;-74
2022/05/29 04:53:09;;;;;;;2.53;1.20;;;10.00;99.90;;;;;;4986401;28;20037;-72
2022/05/29 04:55:35;;;;;;;4.10;1.58;;;10.20;99.90;;;;;;4989173;28;20026;-73
2022/05/29 04:58:01;;;;;;;4.30;1.58;;;10.30;99.90;;;;;;4987048;28;20049;-73
2022/05/29 05:00:27;;;;;;;1.73;1.23;;;10.40;99.90;;;;;;4992411;28;20018;-71
2022/05/29 05:02:53;;;;;;;6.25;2.08;;;10.50;99.90;;;;;;4985354;28;20034;-73
2022/05/29 05:05:19;;;;;;;5.93;2.15;;;10.50;99.90;;;;;;4992125;28;20026;-72
2022/05/29 05:07:45;;;;;;;5.82;2.30;;;10.60;99.90;;;;;;4989330;28;20033;-74
2022/05/29 05:10:15;;;;;;;4.22;1.85;;;10.70;99.90;;;;;;4986171;28;20030;-74
2022/05/29 05:12:41;;;;;;;4.45;2.45;;;10.80;99.90;;;;;;4989036;28;20022;-71
2022/05/29 05:15:08;;;;;;;4.47;1.75;;;10.90;99.90;;;;;;4990781;28;20499;-69
2022/05/29 05:17:34;;;;;;;5.00;2.03;;;11.20;99.90;;;;;;4986887;28;20532;-71
2022/05/29 05:20:00;;;;;;;7.60;2.00;;;11.50;99.90;;;;;;4984728;28;20030;-69
2022/05/29 05:22:26;;;;;;;4.10;1.70;;;11.70;99.60;;;;;;4986892;28;20060;-71
2022/05/29 05:24:52;;;;;;;5.03;1.48;;;11.90;99.10;;;;;;4987387;28;20062;-72
2022/05/29 05:27:18;;;;;;;5.15;1.60;;;12.00;98.40;;;;;;4984968;28;20073;-71
2022/05/29 05:29:44;;;;;;;5.97;1.75;;;12.20;98.40;;;;;;4985218;28;20022;-74
2022/05/29 05:32:10;;;;;;;4.28;1.70;;;12.30;98.10;;;;;;4998446;28;20041;-75
2022/05/29 05:34:35;;;;;;;3.22;1.75;;;12.40;97.70;;;;;;4988743;28;20030;-74
2022/05/29 05:37:01;;;;;;;4.13;1.92;;;12.50;97.50;;;;;;4986327;28;20050;-74
2022/05/29 05:39:27;;;;;;;4.47;1.65;;;12.60;97.20;;;;;;4985601;28;20030;-72
2022/05/29 05:41:53;;;;;;;4.72;2.03;;;12.70;96.90;;;;;;4989795;28;20503;-73
2022/05/29 05:44:20;;;;;;;3.45;1.75;;;12.80;96.70;;;;;;4983678;28;20025;-74
2022/05/29 05:46:48;;;;;;;3.15;1.60;;;12.80;96.50;;;;;;4987879;28;20491;-73
2022/05/29 05:49:16;;;;;;;5.82;2.28;;;12.90;96.20;;;;;;4980758;28;20027;-73
2022/05/29 05:51:42;;;;;;;6.75;1.60;;;13.00;95.70;;;;;;4986878;28;20030;-71
2022/05/29 05:54:08;;;;;;;4.50;1.30;;;13.20;95.30;;;;;;4986072;28;20077;-77
2022/05/29 05:56:34;;;;;;;2.92;1.50;;;13.30;94.90;;;;;;5002190;28;20027;-73
2022/05/29 05:58:59;;;;;;;3.15;1.30;;;13.30;94.70;;;;;;4985021;28;20070;-73
2022/05/29 06:01:25;;;;;;;3.72;2.10;;;13.20;94.60;;;;;;4985800;28;20085;-74
2022/05/29 06:03:51;;;;;;;2.72;1.67;;;13.10;94.70;;;;;;4981365;28;20498;-74
2022/05/29 06:06:17;;;;;;;3.28;1.63;;;13.30;94.50;;;;;;4990955;28;20026;-74
2022/05/29 06:08:43;;;;;;;4.78;1.90;;;13.30;94.30;;;;;;4988071;28;20046;-74
2022/05/29 06:11:09;;;;;;;4.20;1.90;;;13.30;94.30;;;;;;4988938;28;20038;-74
2022/05/29 06:13:35;;;;;;;5.15;1.77;;;13.30;94.20;;;;;;4984580;28;20110;-73
2022/05/29 06:16:03;;;;;;;4.50;1.92;;;13.60;94.20;;;;;;4984285;28;20038;-73
2022/05/29 06:18:29;;;;;;;6.45;1.90;;;13.70;93.90;;;;;;4986628;28;20121;-73
2022/05/29 06:21:00;;;;;;;7.72;2.33;;;13.80;93.80;;;;;;4985688;28;20026;-74
2022/05/29 06:23:27;;;;;;;5.75;2.10;;;13.80;93.60;;;;;;4985402;28;20030;-74
2022/05/29 06:25:53;;;;;;;5.15;1.85;;;13.70;93.80;;;;;;4984046;28;20028;-74
2022/05/29 06:28:19;;;;;;;5.95;2.55;;;13.60;94.10;;;;;;5002961;28;20446;-74
2022/05/29 06:30:44;;;;;;;6.55;2.30;;;13.60;94.30;;;;;;4984526;28;20027;-73
2022/05/29 06:33:12;;;;;;;6.18;2.22;;;13.50;94.50;;;;;;4997501;28;20061;-73
2022/05/29 06:35:37;;;;;;;3.22;1.67;;;13.70;94.50;;;;;;4986688;28;20034;-73
2022/05/29 06:38:03;;;;;;;4.30;2.13;;;13.80;94.50;;;;;;4994817;28;20030;-74
2022/05/29 06:40:29;;;;;;;8.45;2.22;;;13.80;94.20;;;;;;4985101;28;20057;-74
2022/05/29 06:42:55;;;;;;;3.50;1.60;;;13.70;94.20;;;;;;4988283;28;20066;-73
2022/05/29 06:45:21;;;;;;;5.50;1.80;;;13.60;94.10;;;;;;4988947;28;20556;-73
2022/05/29 06:47:46;;;;;;;3.35;1.70;;;13.70;94.00;;;;;;4991042;28;20026;-74
2022/05/29 06:50:12;;;;;;;5.07;1.90;;;13.70;93.80;;;;;;4988641;28;20109;-74
2022/05/29 06:52:38;;;;;;;3.97;1.83;;;13.60;93.80;;;;;;4988050;28;20061;-74
2022/05/29 06:55:06;;;;;;;4.82;1.85;;;13.60;93.90;;;;;;4985282;28;20054;-74
2022/05/29 06:57:44;;;;;;;2.92;1.75;;;13.50;94.00;;;;;;4990907;28;20033;-73
2022/05/29 07:08:32;;;;;;;5.22;2.17;;;13.20;95.00;;;;;;4972914;28;21062;-74
2022/05/29 07:11:24;;;;;;;2.92;1.80;;;13.20;95.00;;;;;;4971165;28;20039;-74
2022/05/29 07:13:50;;;;;;;4.35;1.85;;;13.30;94.90;;;;;;4970183;28;20586;-74
2022/05/29 07:16:16;;;;;;;3.83;2.00;;;13.30;95.00;;;;;;4972507;28;20507;-74
2022/05/29 07:18:42;;;;;;;4.10;2.13;;;13.10;95.00;;;;;;4973125;28;20035;-74
2022/05/29 07:21:08;;;;;;;3.53;1.90;;;13.00;95.40;;;;;;4966228;28;20333;-74
2022/05/29 07:23:35;;;;;;;3.47;1.73;;;13.00;95.90;;;;;;4953143;28;20034;-73
2022/05/29 07:26:03;;;;;;;5.00;2.17;;;13.00;96.10;;;;;;4969210;28;20033;-73
2022/05/29 07:28:29;;;;;;;6.43;2.13;;;13.00;96.60;;;;;;4965863;28;20027;-71
2022/05/29 07:30:55;;;;;;;8.57;3.00;;;13.00;96.90;;;;;;4969704;28;20041;-72
2022/05/29 07:33:22;;;;;;;3.75;2.50;;;12.90;97.40;;;;;;4969271;28;20023;-71
2022/05/29 07:35:49;;;;;;;4.70;1.98;;;12.90;97.50;;;;;;4971245;28;20125;-71
2022/05/29 07:38:15;;;;;;;4.63;1.90;;;12.80;97.90;;;;;;4968918;28;20408;-74
2022/05/29 07:40:40;;;;;;;5.15;1.95;;;12.70;97.40;;;;;;4965991;28;20046;-71
2022/05/29 07:43:25;;;;;;;5.53;1.80;;;12.60;98.10;;;;;;4970032;28;20027;-71
2022/05/29 07:45:54;;;;;;;6.25;2.10;;;12.50;97.60;;;;;;4950072;28;20392;-71
2022/05/29 07:48:25;;;;;;;4.95;2.05;;;12.50;98.30;;;;;;4968990;28;20049;-72
2022/05/29 07:50:51;;;;;;;4.05;2.17;;;12.40;98.90;;;;;;4962597;28;20031;-71
2022/05/29 07:53:17;;;;;;;9.10;2.08;;;12.30;99.50;;;;;;4949741;28;20026;-74
2022/05/29 07:55:44;;;;;;;3.00;1.80;;;12.30;99.70;;;;;;4971497;28;20050;-73
2022/05/29 07:58:11;;;;;;;4.13;1.70;;;12.30;99.60;;;;;;4966479;28;20463;-73
2022/05/29 08:00:38;;;;;;;3.03;1.92;;;12.30;99.60;;;;;;4961101;28;20361;-73
2022/05/29 08:03:04;;;;;;;4.10;1.70;;;12.30;99.30;;;;;;4971998;28;20027;-72
2022/05/29 08:05:34;;;;;;;7.32;1.80;;;12.30;99.30;;;;;;4990086;28;20019;-73
2022/05/29 08:08:03;;;;;;;3.67;1.60;;;12.40;98.70;;;;;;4991068;28;20035;-73
2022/05/29 08:10:30;;;;;;;5.32;1.67;;;12.30;98.60;;;;;;4987635;28;20026;-74
2022/05/29 08:12:55;;;;;;;3.85;1.50;;;12.30;98.80;;;;;;4969807;28;20026;-74
2022/05/29 08:15:21;;;;;;;4.72;1.88;;;12.30;98.80;;;;;;4975808;28;20029;-73
2022/05/29 08:17:47;;;;;;;6.50;1.95;;;12.40;98.50;;;;;;4966001;28;20368;-73
2022/05/29 08:20:14;;;;;;;4.45;1.73;;;12.30;98.00;;;;;;4984187;28;20150;-73
2022/05/29 08:22:40;;;;;;;4.55;2.08;;;12.40;97.60;;;;;;4982636;28;20510;-73
2022/05/29 08:30:38;;;;;;;7.40;1.73;;;12.30;97.60;;;;;;4987468;28;20088;-75
2022/05/29 08:33:18;;;;;;;3.55;1.45;;;12.30;97.80;;;;;;4975490;28;20125;-75
2022/05/29 08:35:53;;;;;;;4.53;1.80;;;12.30;98.20;;;;;;4984143;28;20461;-74
2022/05/29 08:38:19;;;;;;;7.53;1.90;;;12.30;98.60;;;;;;4968411;28;20495;-73
2022/05/29 08:40:49;;;;;;;3.10;1.52;;;12.20;98.80;;;;;;4985297;28;20054;-74
2022/05/29 08:43:34;;;;;;;3.42;1.75;;;12.40;98.70;;;;;;4990312;28;20058;-74
2022/05/29 08:46:13;;;;;;;5.18;2.17;;;12.40;98.40;;;;;;4964538;28;20065;-74
2022/05/29 08:48:39;;;;;;;5.25;1.58;;;12.70;98.20;;;;;;4984443;28;20042;-74
2022/05/29 08:51:18;;;;;;;4.18;1.80;;;12.80;98.40;;;;;;4986304;28;20518;-74
2022/05/29 08:54:03;;;;;;;4.70;1.58;;;13.00;98.00;;;;;;4985110;28;20034;-73
2022/05/29 08:56:54;;;;;;;5.93;2.30;;;13.10;97.60;;;;;;4986127;28;20080;-74
2022/05/29 08:59:41;;;;;;;5.25;1.70;;;13.20;97.30;;;;;;4950490;28;20059;-74
2022/05/29 09:02:20;;;;;;;4.03;1.73;;;13.10;97.30;;;;;;4987491;28;20411;-73
2022/05/29 09:04:50;;;;;;;2.97;2.05;;;13.40;97.50;;;;;;4990054;28;20076;-73
2022/05/29 09:07:18;;;;;;;2.65;1.73;;;13.40;97.30;;;;;;4990941;28;20026;-74
2022/05/29 09:09:54;;;;;;;6.80;1.75;;;13.40;97.10;;;;;;4993668;28;20490;-72
2022/05/29 09:12:23;;;;;;;3.42;1.90;;;13.50;97.10;;;;;;4971694;28;20033;-75
2022/05/29 09:15:07;;;;;;;3.75;1.83;;;13.50;97.00;;;;;;4985441;28;20045;-74
2022/05/29 09:17:46;;;;;;;3.33;1.83;;;13.50;97.00;;;;;;4971510;28;20022;-75
2022/05/29 09:20:32;;;;;;;4.88;1.70;;;13.70;96.70;;;;;;4969400;28;20050;-74
2022/05/29 09:23:00;;;;;;;2.42;1.77;;;14.00;96.40;;;;;;4986558;28;20471;-75
2022/05/29 09:25:28;;;;;;;3.08;1.38;;;14.00;95.50;;;;;;4982826;28;20423;-74
2022/05/29 09:27:54;;;;;;;6.95;2.05;;;13.90;95.10;;;;;;4985803;28;20037;-75
2022/05/29 09:30:20;;;;;;;3.65;1.77;;;13.90;95.70;;;;;;4986098;28;20491;-73
2022/05/29 09:32:52;;;;;;;6.97;2.00;;;13.50;96.30;;;;;;4989933;28;20415;-75
2022/05/29 09:35:36;;;;;;;7.80;2.08;;;13.20;97.20;;;;;;4984089;28;20027;-73
2022/05/29 09:38:12;;;;;;;6.18;2.05;;;13.00;98.40;;;;;;4984706;28;20038;-75
2022/05/29 09:40:42;;;;;;;5.95;1.90;;;12.70;99.90;;;;;;4980026;28;20390;-74
2022/05/29 09:43:23;;;;;;;5.30;1.70;;;12.40;99.90;;;;;;4990156;28;20489;-75
2022/05/29 09:45:53;;;;;;;7.60;2.45;;;12.20;99.90;;;;;;4989618;28;20109;-74
2022/05/29 09:51:24;;;;;;;7.70;2.30;;;11.60;99.90;;;;;;4983098;28;20045;-74
2022/05/29 09:54:04;;;;;;;9.43;3.03;;;11.40;99.90;;;;;;4992302;28;20038;-73
2022/05/29 09:56:35;;;;;;;8.80;2.85;;;11.20;99.90;;;;;;4973517;28;20502;-74
2022/05/29 09:59:11;;;;;;;10.77;3.88;;;11.00;99.90;;;;;;4966625;28;20031;-74
2022/05/29 10:01:42;;;;;;;7.80;2.80;;;10.80;99.90;;;;;;4986402;28;20046;-74
2022/05/29 10:04:34;;;;;;;11.60;3.33;;;10.60;99.90;;;;;;5001358;23;20038;-76
2022/05/29 10:07:33;;;;;;;9.55;3.08;;;10.50;99.90;;;;;;4972847;28;20056;-75
2022/05/29 10:10:12;;;;;;;7.13;3.08;;;10.50;99.90;;;;;;4965991;28;20042;-75
2022/05/29 10:12:44;;;;;;;10.35;4.40;;;10.60;99.90;;;;;;4973723;28;20077;-74
2022/05/29 10:15:35;;;;;;;7.50;3.72;;;10.70;99.90;;;;;;4993607;28;20036;-74
2022/05/29 10:18:22;;;;;;;8.27;3.75;;;11.00;99.90;;;;;;4963178;28;20466;-76
2022/05/29 10:20:49;;;;;;;6.93;4.80;;;11.20;99.90;;;;;;4991084;28;20046;-74
2022/05/29 10:23:34;;;;;;;13.32;5.00;;;11.50;99.90;;;;;;4988621;28;20027;-75
2022/05/29 10:26:13;;;;;;;8.15;2.85;;;11.80;99.90;;;;;;4988727;28;20336;-75
2022/05/29 10:28:41;;;;;;;8.77;2.78;;;12.10;99.90;;;;;;4992472;28;20018;-75
2022/05/29 10:31:10;;;;;;;5.88;2.47;;;12.30;99.90;;;;;;4988414;28;20022;-75
2022/05/29 10:33:36;;;;;;;11.13;2.80;;;12.40;99.90;;;;;;4977454;28;20056;-74
2022/05/29 10:36:25;;;;;;;3.40;2.17;;;12.50;99.90;;;;;;4996872;28;20066;-76
2022/05/29 10:39:05;;;;;;;5.22;2.38;;;12.50;99.90;;;;;;4993987;28;20031;-75
2022/05/29 10:41:35;;;;;;;7.25;2.55;;;12.20;99.90;;;;;;4990976;28;20030;-74
2022/05/29 10:44:01;;;;;;;5.07;1.83;;;12.10;99.90;;;;;;4972297;28;20113;-76
2022/05/29 10:46:44;;;;;;;6.88;2.35;;;12.00;99.90;;;;;;4973890;28;20126;-75
2022/05/29 10:49:33;;;;;;;4.90;2.38;;;12.10;99.90;;;;;;4987638;28;20054;-74
2022/05/29 10:52:11;;;;;;;6.85;2.58;;;12.10;99.90;;;;;;4988699;28;20034;-76
2022/05/29 10:54:48;;;;;;;9.10;2.83;;;12.10;99.90;;;;;;4994039;28;20131;-74
2022/05/29 10:57:26;;;;;;;8.35;2.70;;;12.30;99.90;;;;;;4977402;28;20026;-74
2022/05/29 10:59:58;;;;;;;6.45;2.30;;;12.40;99.90;;;;;;4993123;28;20046;-75
2022/05/29 11:03:23;;;;;;;7.22;2.80;;;12.60;99.90;;;;;;4978984;28;20022;-75
2022/05/29 11:06:12;;;;;;;3.35;2.33;;;12.70;99.90;;;;;;4970845;28;21137;-75
2022/05/29 11:08:59;;;;;;;5.40;2.13;;;12.90;99.90;;;;;;4977957;28;20031;-75
2022/05/29 11:11:40;;;;;;;4.85;2.67;;;12.90;99.90;;;;;;4975460;28;20454;-75
2022/05/29 11:14:30;;;;;;;4.32;2.03;;;12.80;99.90;;;;;;4976748;28;20061;-74
2022/05/29 11:17:14;;;;;;;3.53;1.88;;;12.90;99.90;;;;;;4967160;28;20081;-75
2022/05/29 11:20:04;;;;;;;6.13;2.28;;;13.00;99.90;;;;;;4972624;28;20019;-75
2022/05/29 11:22:30;;;;;;;4.57;1.52;;;13.00;99.90;;;;;;4973628;28;20034;-74
2022/05/29 11:25:20;;;;;;;6.20;1.73;;;13.00;99.90;;;;;;4971617;28;20026;-75
2022/05/29 11:28:23;;;;;;;2.83;1.52;;;12.90;99.90;;;;;;4984091;28;20034;-75
2022/05/29 11:30:57;;;;;;;8.07;2.08;;;12.90;99.90;;;;;;4974689;28;20127;-75
2022/05/29 11:36:40;;;;;;;6.63;1.98;;;12.80;99.90;;;;;;4958043;28;20047;-81
2022/05/29 11:39:12;;;;;;;4.60;1.73;;;12.60;99.90;;;;;;4934019;28;20046;-81
2022/05/29 11:41:55;;;;;;;1.63;1.13;;;12.40;99.90;;;;;;4945128;28;20055;-84
2022/05/29 11:44:25;;;;;;;2.30;1.35;;;12.00;99.90;;;;;;4963532;28;20023;-83
2022/05/29 11:53:11;;;;;;;1.63;0.80;;;11.30;99.90;;;;;;4958177;28;20043;-82
2022/05/29 11:55:42;;;;;;;2.42;1.23;;;11.40;99.90;;;;;;4941383;28;20031;-80
2022/05/29 11:58:41;;;;;;;3.00;1.23;;;11.60;99.90;;;;;;4943963;28;20030;-85
2022/05/29 12:01:38;;;;;;;5.35;1.25;;;11.40;99.90;;;;;;4935647;29;20342;-80
2022/05/29 12:04:32;;;;;;;1.67;1.15;;;11.30;99.90;;;;;;4956979;28;20024;-83
2022/05/29 12:07:29;;;;;;;3.15;1.25;;;11.30;99.90;;;;;;4946754;29;20031;-84
2022/05/29 12:10:29;;;;;;;2.60;0.80;;;11.30;99.90;;;;;;4954037;28;20110;-82
2022/05/29 12:13:22;;;;;;;2.17;0.80;;;11.10;99.90;;;;;;4955080;28;20381;-81
2022/05/29 12:15:59;;;;;;;1.38;0.70;;;11.10;99.90;;;;;;4949441;28;20082;-80
2022/05/29 12:18:32;;;;;;;0.70;0.60;;;11.10;99.90;;;;;;4938311;28;20068;-84
2022/05/29 12:21:03;;;;;;;1.67;0.80;;;11.10;99.90;;;;;;4943552;28;20027;-84
2022/05/29 12:23:37;;;;;;;1.20;0.73;;;11.10;99.90;;;;;;4908684;28;20040;-83
2022/05/29 12:26:16;;;;;;;;;;;11.10;99.90;;;;;;4933482;29;20027;-83
2022/05/29 12:28:56;;;;;;;2.67;0.82;;;11.10;99.90;;;;;;4918584;29;20013;-83
2022/05/29 12:31:38;;;;;;;2.38;1.30;;;11.10;99.90;;;;;;4936728;29;20023;-83
2022/05/29 12:34:05;;;;;;;1.95;0.82;;;11.10;99.90;;;;;;4939758;29;20036;-84
2022/05/29 12:36:56;;;;;;;3.22;0.73;;;11.30;99.90;;;;;;4939237;29;20489;-80
2022/05/29 12:39:44;;;;;;;1.42;0.80;;;11.30;99.90;;;;;;4938263;29;20085;-80
2022/05/29 12:42:15;;;;;;;3.15;0.88;;;11.40;99.90;;;;;;4933811;29;20059;-80
2022/05/29 12:45:18;;;;;;;3.13;1.23;;;11.50;99.90;;;;;;4936870;29;20035;-81
2022/05/29 12:48:18;;;;;;;2.85;1.27;;;11.60;99.90;;;;;;4939079;29;20031;-78
2022/05/29 12:51:01;;;;;;;2.97;1.00;;;11.60;99.90;;;;;;4935941;29;20028;-81
2022/05/29 12:53:30;;;;;;;5.65;1.45;;;11.70;99.90;;;;;;4929789;29;20047;-81
2022/05/29 12:56:18;;;;;;;3.33;1.15;;;11.70;99.90;;;;;;4920891;29;20074;-81
2022/05/29 12:58:47;;;;;;;3.13;1.35;;;11.80;99.90;;;;;;4917998;29;20039;-82
2022/05/29 13:01:28;;;;;;;2.47;1.15;;;11.80;99.90;;;;;;4936608;29;20399;-81
2022/05/29 13:04:10;;;;;;;3.85;1.20;;;11.80;99.90;;;;;;4920027;29;20100;-80
2022/05/29 13:07:11;;;;;;;2.78;1.05;;;11.90;99.90;;;;;;4933403;29;20028;-80
2022/05/29 13:10:16;;;;;;;3.53;1.20;;;12.00;99.90;;;;;;4841631;29;20682;-80
2022/05/29 13:12:48;;;;;;;5.45;1.23;;;12.10;99.90;;;;;;4939750;29;20028;-82
2022/05/29 13:15:42;;;;;;;2.42;1.20;;;12.20;99.90;;;;;;4920103;29;20035;-81
2022/05/29 13:21:14;;;;;;;1.65;0.80;;;12.50;99.90;;;;;;4943868;29;20102;-81
2022/05/29 13:24:00;;;;;;;2.80;1.00;;;12.30;99.90;;;;;;4928519;29;20027;-79
2022/05/29 13:26:28;;;;;;;3.08;0.82;;;12.30;99.90;;;;;;4916535;29;20046;-81
2022/05/29 13:28:59;;;;;;;5.88;1.35;;;12.20;99.90;;;;;;4936131;29;20115;-79
2022/05/29 13:31:26;;;;;;;2.33;0.85;;;12.30;99.90;;;;;;4938507;29;20031;-81
2022/05/29 13:33:58;;;;;;;2.60;1.02;;;12.50;99.90;;;;;;4920466;29;20036;-80
2022/05/29 13:36:40;;;;;;;4.10;1.00;;;12.60;99.90;;;;;;4924390;29;20044;-80
2022/05/29 13:39:21;;;;;;;2.72;1.00;;;12.80;99.90;;;;;;4937557;29;20496;-79
2022/05/29 13:42:10;;;;;;;6.05;1.33;;;12.60;99.30;;;;;;4940857;29;20023;-80
2022/05/29 13:44:36;;;;;;;3.33;1.10;;;12.50;99.60;;;;;;4907251;29;20055;-80
2022/05/29 13:47:23;;;;;;;2.80;1.00;;;12.60;99.90;;;;;;4921191;29;20032;-80
2022/05/29 13:50:15;;;;;;;1.60;0.73;;;12.60;99.80;;;;;;4934591;29;20039;-80
2022/05/29 13:52:54;;;;;;;1.85;0.90;;;12.70;99.70;;;;;;4937466;29;20035;-82
2022/05/29 13:55:30;;;;;;;3.47;0.90;;;12.80;99.70;;;;;;4926654;29;20047;-82
2022/05/29 14:04:00;;;;;;;1.00;0.60;;;13.30;97.00;;;;;;4941991;29;20031;-80
2022/05/29 14:06:57;;;;;;;2.65;0.60;;;13.40;95.70;;;;;;4920642;29;20059;-79
2022/05/29 14:09:23;;;;;;;2.05;0.63;;;13.40;96.20;;;;;;4938214;29;20035;-82